createdAt,value
2022-08-05T00:01:27.747Z,24.60
2022-08-05T00:06:33.269Z,24.60
2022-08-05T00:11:48.355Z,24.40
2022-08-05T00:16:52.573Z,24.20
2022-08-05T00:21:56.105Z,24.30
2022-08-05T00:26:59.373Z,24.30
2022-08-05T00:32:13.217Z,24.30
2022-08-05T00:37:17.474Z,24.30
2022-08-05T00:42:32.715Z,24.30
2022-08-05T00:47:56.817Z,24.10
2022-08-05T00:52:57.582Z,24.10
2022-08-05T00:58:00.145Z,24.10
2022-08-05T01:03:02.633Z,24.00
2022-08-05T01:08:39.225Z,24.00
2022-08-05T01:13:57.302Z,23.80
2022-08-05T01:19:15.265Z,23.80
2022-08-05T01:24:58.375Z,23.90
2022-08-05T01:30:03.599Z,23.90
2022-08-05T01:35:11.832Z,24.00
2022-08-05T01:40:35.084Z,24.00
2022-08-05T01:45:43.033Z,24.00
2022-08-05T01:50:50.965Z,24.00
2022-08-05T01:55:58.940Z,24.00
2022-08-05T02:01:07.675Z,24.00
2022-08-05T02:06:24.244Z,24.10
2022-08-05T02:11:48.127Z,24.10
2022-08-05T02:16:56.330Z,24.10
2022-08-05T02:22:08.474Z,24.10
2022-08-05T02:27:12.677Z,24.10
2022-08-05T02:32:23.679Z,24.10
2022-08-05T02:37:34.061Z,24.00
2022-08-05T02:42:37.521Z,24.00
2022-08-05T02:48:06.593Z,24.00
2022-08-05T02:53:03.880Z,23.90
2022-08-05T02:58:11.319Z,23.90
2022-08-05T03:03:23.770Z,23.90
2022-08-05T03:08:26.898Z,23.90
2022-08-05T03:13:51.663Z,23.90
2022-08-05T03:18:54.238Z,23.90
2022-08-05T03:23:57.820Z,24.00
2022-08-05T03:29:00.993Z,24.00
2022-08-05T03:34:04.738Z,23.90
2022-08-05T03:39:08.145Z,23.90
2022-08-05T03:44:19.909Z,23.90
2022-08-05T03:49:24.200Z,23.90
2022-08-05T03:55:51.034Z,23.90
2022-08-05T04:00:16.423Z,24.00
2022-08-05T04:05:20.152Z,24.00
2022-08-05T04:10:27.634Z,24.00
2022-08-05T04:15:33.216Z,24.00
2022-08-05T04:20:41.130Z,24.00
2022-08-05T04:26:00.481Z,24.00
2022-08-05T04:31:08.284Z,24.10
2022-08-05T04:36:38.209Z,24.10
2022-08-05T04:41:36.877Z,24.10
2022-08-05T04:46:40.927Z,24.20
2022-08-05T04:51:50.679Z,24.30
2022-08-05T04:57:02.882Z,24.40
2022-08-05T05:02:07.817Z,24.40
2022-08-05T05:07:29.733Z,24.50
2022-08-05T05:12:36.783Z,24.60
2022-08-05T05:17:55.728Z,24.70
2022-08-05T05:23:08.003Z,24.50
2022-08-05T05:28:11.971Z,24.70
2022-08-05T05:33:17.026Z,24.80
2022-08-05T05:38:22.823Z,25.10
2022-08-05T05:43:58.160Z,25.20
2022-08-05T05:48:51.827Z,25.40
2022-08-05T05:53:59.615Z,25.60
2022-08-05T05:59:05.816Z,25.80
2022-08-05T06:04:11.794Z,25.90
2022-08-05T06:09:17.645Z,26.10
2022-08-05T06:14:29.045Z,26.20
2022-08-05T06:19:34.127Z,26.40
2022-08-05T06:24:48.108Z,26.60
2022-08-05T06:30:04.174Z,26.70
2022-08-05T06:35:15.476Z,26.90
2022-08-05T06:40:33.009Z,26.90
2022-08-05T06:45:44.884Z,27.10
2022-08-05T06:50:57.971Z,27.40
2022-08-05T06:56:03.549Z,27.60
2022-08-05T07:01:06.882Z,28.40
2022-08-05T07:06:14.188Z,29.80
2022-08-05T07:11:17.775Z,31.20
2022-08-05T07:18:08.591Z,34.70
2022-08-05T07:22:07.212Z,36.70
2022-08-05T07:27:10.391Z,36.80
2022-08-05T07:32:12.633Z,36.10
2022-08-05T07:37:16.900Z,35.00
2022-08-05T07:42:19.188Z,33.90
2022-08-05T07:47:42.038Z,32.90
2022-08-05T07:52:45.304Z,32.60
2022-08-05T07:58:02.488Z,32.50
2022-08-05T08:03:15.375Z,32.20
2022-08-05T08:08:19.801Z,32.20
2022-08-05T08:13:29.132Z,31.80
2022-08-05T08:18:31.795Z,31.50
2022-08-05T08:24:02.683Z,31.30
2022-08-05T08:29:02.048Z,31.40
2022-08-05T08:34:30.706Z,31.70
2022-08-05T08:39:35.674Z,31.40
2022-08-05T08:45:24.220Z,31.10
2022-08-05T08:50:31.102Z,31.40
2022-08-05T08:56:02.541Z,31.80
2022-08-05T09:00:51.483Z,31.70
2022-08-05T09:06:08.923Z,31.80
2022-08-05T09:11:15.128Z,31.70
2022-08-05T09:16:17.405Z,31.70
2022-08-05T09:22:17.825Z,31.40
2022-08-05T09:26:51.879Z,31.50
2022-08-05T09:32:41.920Z,31.20
2022-08-05T09:38:16.304Z,31.20
2022-08-05T09:42:49.812Z,30.90
2022-08-05T09:47:56.797Z,30.30
2022-08-05T09:53:00.028Z,28.90
2022-08-05T09:58:11.406Z,27.70
2022-08-05T10:03:13.917Z,26.80
2022-08-05T10:08:36.010Z,26.50
2022-08-05T10:13:47.792Z,26.30
2022-08-05T10:18:51.577Z,26.40
2022-08-05T10:24:00.386Z,26.20
2022-08-05T10:29:03.137Z,26.20
2022-08-05T10:34:08.090Z,26.30
2022-08-05T10:39:24.358Z,26.20
2022-08-05T10:44:29.534Z,26.00
2022-08-05T10:49:33.334Z,25.90
2022-08-05T10:55:10.218Z,26.00
2022-08-05T11:00:20.833Z,25.90
2022-08-05T11:05:29.108Z,26.00
2022-08-05T11:10:37.334Z,25.90
2022-08-05T11:15:58.955Z,25.90
2022-08-05T11:21:06.275Z,25.90
2022-08-05T11:26:29.201Z,25.90
2022-08-05T11:31:56.486Z,25.70
2022-08-05T11:36:57.572Z,25.70
2022-08-05T11:42:01.767Z,25.70
2022-08-05T11:47:10.450Z,25.90
2022-08-05T11:52:29.419Z,25.70
2022-08-05T11:58:08.457Z,25.80
2022-08-05T12:02:54.525Z,26.10
2022-08-05T12:08:10.444Z,26.20
2022-08-05T12:13:18.675Z,26.10
2022-08-05T12:18:39.840Z,25.90
2022-08-05T12:24:09.383Z,26.10
2022-08-05T12:29:17.853Z,26.20
2022-08-05T12:34:31.566Z,26.30
2022-08-05T12:39:38.798Z,26.30
2022-08-05T12:44:41.267Z,26.30
2022-08-05T12:50:02.190Z,26.30
2022-08-05T12:55:28.355Z,26.10
2022-08-05T13:02:00.627Z,25.90
2022-08-05T13:05:54.097Z,25.90
2022-08-05T13:11:02.233Z,25.80
2022-08-05T13:16:12.590Z,25.60
2022-08-05T13:21:17.709Z,25.40
2022-08-05T13:26:29.778Z,25.70
2022-08-05T13:32:03.473Z,25.80
2022-08-05T13:36:54.836Z,25.80
2022-08-05T13:41:57.085Z,25.70
2022-08-05T13:47:04.583Z,25.70
2022-08-05T13:52:12.665Z,25.80
2022-08-05T13:57:16.078Z,25.70
2022-08-05T14:02:19.973Z,25.90
2022-08-05T14:08:05.549Z,25.80
2022-08-05T14:12:54.503Z,25.90
2022-08-05T14:17:59.803Z,25.70
2022-08-05T14:23:03.046Z,25.70
2022-08-05T14:28:05.347Z,25.70
2022-08-05T14:33:09.996Z,25.90
2022-08-05T14:38:27.769Z,25.60
2022-08-05T14:44:01.811Z,25.40
2022-08-05T14:49:06.875Z,25.30
2022-08-05T14:54:27.639Z,25.30
2022-08-05T14:59:35.803Z,25.30
2022-08-05T15:04:39.317Z,25.40
2022-08-05T15:09:52.657Z,25.40
2022-08-05T15:14:57.996Z,25.20
2022-08-05T15:20:00.240Z,25.20
2022-08-05T15:25:13.971Z,25.20
2022-08-05T15:30:16.955Z,25.30
2022-08-05T15:35:19.248Z,25.30
2022-08-05T15:40:59.837Z,25.10
2022-08-05T15:45:46.816Z,25.30
2022-08-05T15:50:49.042Z,25.40
2022-08-05T15:56:02.761Z,25.30
2022-08-05T16:01:16.750Z,25.30
2022-08-05T16:06:22.781Z,25.20
2022-08-05T16:11:42.862Z,25.10
2022-08-05T16:16:47.350Z,25.30
2022-08-05T16:21:59.370Z,25.30
2022-08-05T16:27:04.635Z,25.20
2022-08-05T16:32:10.083Z,24.90
2022-08-05T16:38:02.929Z,24.90
2022-08-05T16:42:36.007Z,25.00
2022-08-05T16:47:48.394Z,25.00
2022-08-05T16:52:57.887Z,25.00
2022-08-05T16:58:01.633Z,24.90
2022-08-05T17:03:19.868Z,25.00
2022-08-05T17:08:35.725Z,25.00
2022-08-05T17:13:45.990Z,25.00
2022-08-05T17:18:48.324Z,25.00
2022-08-05T17:24:05.269Z,24.90
2022-08-05T17:29:10.563Z,24.80
2022-08-05T17:34:12.839Z,24.70
2022-08-05T17:39:23.984Z,24.80
2022-08-05T17:44:32.570Z,24.90
2022-08-05T17:50:00.029Z,25.20
2022-08-05T17:54:57.186Z,25.50
2022-08-05T18:00:05.528Z,25.60
2022-08-05T18:05:08.788Z,25.70
2022-08-05T18:10:20.718Z,25.70
2022-08-05T18:15:24.406Z,25.80
2022-08-05T18:20:29.663Z,25.80
2022-08-05T18:25:34.094Z,25.80
2022-08-05T18:30:39.039Z,25.80
2022-08-05T18:36:01.104Z,25.70
2022-08-05T18:42:00.603Z,25.70
2022-08-05T18:46:29.758Z,25.70
2022-08-05T18:52:05.204Z,25.70
2022-08-05T18:57:15.270Z,25.70
2022-08-05T19:02:28.591Z,25.70
2022-08-05T19:07:46.151Z,25.60
2022-08-05T19:12:49.363Z,25.60
2022-08-05T19:18:08.579Z,25.50
2022-08-05T19:24:03.559Z,25.50
2022-08-05T19:28:35.077Z,25.40
2022-08-05T19:33:38.607Z,25.40
2022-08-05T19:38:43.923Z,25.40
2022-08-05T19:44:07.011Z,25.50
2022-08-05T19:49:12.500Z,25.50
2022-08-05T19:54:26.777Z,25.40
2022-08-05T20:00:00.974Z,25.40
2022-08-05T20:04:58.834Z,25.40
2022-08-05T20:10:02.503Z,25.40
2022-08-05T20:15:15.895Z,25.40
2022-08-05T20:20:38.882Z,25.30
2022-08-05T20:25:41.371Z,25.30
2022-08-05T20:30:43.764Z,25.40
2022-08-05T20:35:47.465Z,25.40
2022-08-05T20:40:50.364Z,25.30
2022-08-05T20:45:56.077Z,25.40
2022-08-05T20:50:59.428Z,25.40
2022-08-05T20:56:10.479Z,25.50
2022-08-05T21:01:13.368Z,25.50
2022-08-05T21:06:28.356Z,25.40
2022-08-05T21:12:07.533Z,25.40
2022-08-05T21:16:53.609Z,25.40
2022-08-05T21:21:55.833Z,25.30
2022-08-05T21:26:58.852Z,25.30
2022-08-05T21:32:02.580Z,25.30
2022-08-05T21:37:05.209Z,25.20
2022-08-05T21:42:07.739Z,25.10
2022-08-05T21:47:57.259Z,25.10
2022-08-05T21:52:52.468Z,25.00
2022-08-05T21:57:55.136Z,25.00
2022-08-05T22:02:58.234Z,25.00
2022-08-05T22:08:02.218Z,25.00
2022-08-05T22:13:09.146Z,25.00
2022-08-05T22:18:27.267Z,25.00
2022-08-05T22:24:01.795Z,24.90
2022-08-05T22:29:06.750Z,24.90
2022-08-05T22:34:09.022Z,24.90
2022-08-05T22:39:21.462Z,24.90
2022-08-05T22:44:23.872Z,24.90
2022-08-05T22:50:21.509Z,24.80
2022-08-05T22:54:49.835Z,24.80
2022-08-05T22:59:54.080Z,24.80
2022-08-05T23:04:57.085Z,24.80
2022-08-05T23:10:02.129Z,24.80
2022-08-05T23:15:08.674Z,24.70
2022-08-05T23:20:17.631Z,24.80
2022-08-05T23:25:53.007Z,24.80
2022-08-05T23:30:43.873Z,24.80
2022-08-05T23:35:56.403Z,24.80
2022-08-05T23:40:58.880Z,24.80
2022-08-05T23:46:20.592Z,24.80
2022-08-05T23:51:24.267Z,24.80
2022-08-05T23:56:27.291Z,24.80
